createdAt,value
2016-10-04T00:00:58.840Z,9.34
2016-10-04T00:01:58.861Z,9.37
2016-10-04T00:02:58.866Z,9.4
2016-10-04T00:03:58.883Z,9.36
2016-10-04T00:04:58.903Z,9.47
2016-10-04T00:05:58.911Z,9.51
2016-10-04T00:06:58.943Z,9.56
2016-10-04T00:07:58.946Z,9.54
2016-10-04T00:08:58.971Z,9.51
2016-10-04T00:09:58.975Z,9.56
2016-10-04T00:10:59.016Z,9.54
2016-10-04T00:11:59.021Z,9.56
2016-10-04T00:12:59.029Z,9.59
2016-10-04T00:13:59.035Z,9.59
2016-10-04T00:14:59.070Z,9.68
2016-10-04T00:15:59.087Z,9.69
2016-10-04T00:16:59.117Z,9.68
2016-10-04T00:17:59.115Z,9.66
2016-10-04T00:18:59.122Z,9.79
2016-10-04T00:19:59.150Z,9.73
2016-10-04T00:20:59.188Z,9.76
2016-10-04T00:21:59.175Z,9.74
2016-10-04T00:22:59.191Z,9.74
2016-10-04T00:23:59.233Z,9.76
2016-10-04T00:24:59.233Z,9.76
2016-10-04T00:25:59.257Z,9.77
2016-10-04T00:26:59.269Z,9.8
2016-10-04T00:27:59.286Z,9.76
2016-10-04T00:28:59.303Z,9.76
2016-10-04T00:29:59.299Z,9.82
2016-10-04T00:30:59.331Z,9.79
2016-10-04T00:31:59.357Z,9.8
2016-10-04T00:32:59.357Z,9.89
2016-10-04T00:33:59.379Z,9.92
2016-10-04T00:34:59.394Z,9.83
2016-10-04T00:35:59.409Z,9.84
2016-10-04T00:36:59.417Z,9.91
2016-10-04T00:37:59.432Z,9.84
2016-10-04T00:38:59.463Z,9.83
2016-10-04T00:39:59.474Z,9.87
2016-10-04T00:40:59.824Z,9.94
2016-10-04T00:41:59.510Z,9.87
2016-10-04T00:42:59.525Z,9.95
2016-10-04T00:43:59.550Z,9.95
2016-10-04T00:44:59.563Z,9.86
2016-10-04T00:45:59.588Z,9.98
2016-10-04T00:46:59.599Z,9.98
2016-10-04T00:47:59.603Z,10.01
2016-10-04T00:48:59.632Z,10.04
2016-10-04T00:49:59.635Z,9.99
2016-10-04T00:50:59.641Z,10.04
2016-10-04T00:51:59.671Z,10.01
2016-10-04T00:52:59.703Z,10.09
2016-10-04T00:53:59.707Z,10.07
2016-10-04T00:54:59.716Z,10.09
2016-10-04T00:55:59.735Z,10.09
2016-10-04T00:56:59.766Z,10.1
2016-10-04T00:57:59.780Z,10.09
2016-10-04T00:58:59.801Z,10.13
2016-10-04T00:59:59.814Z,10.07
2016-10-04T01:00:59.824Z,10.13
2016-10-04T01:01:59.839Z,10.12
2016-10-04T01:02:59.870Z,10.16
2016-10-04T01:03:59.878Z,10.2
2016-10-04T01:04:59.897Z,10.17
2016-10-04T01:05:59.899Z,10.1
2016-10-04T01:06:59.906Z,10.13
2016-10-04T01:07:59.929Z,10.17
2016-10-04T01:08:59.961Z,10.33
2016-10-04T01:09:59.978Z,10.23
2016-10-04T01:10:59.985Z,10.33
2016-10-04T01:12:00.010Z,10.3
2016-10-04T01:13:00.018Z,10.28
2016-10-04T01:14:00.051Z,10.3
2016-10-04T01:15:00.060Z,10.26
2016-10-04T01:16:00.075Z,10.38
2016-10-04T01:17:00.084Z,10.35
2016-10-04T01:18:00.094Z,10.26
2016-10-04T01:19:00.127Z,10.26
2016-10-04T01:20:00.143Z,10.38
2016-10-04T01:21:00.161Z,10.37
2016-10-04T01:22:00.175Z,10.4
2016-10-04T01:23:00.218Z,10.42
2016-10-04T01:24:00.210Z,10.35
2016-10-04T01:25:00.210Z,10.37
2016-10-04T01:26:00.249Z,10.33
2016-10-04T01:27:00.324Z,10.34
2016-10-04T01:28:00.262Z,10.44
2016-10-04T01:29:00.326Z,10.34
2016-10-04T01:30:00.301Z,10.37
2016-10-04T01:31:00.450Z,10.35
2016-10-04T01:32:00.337Z,10.42
2016-10-04T01:33:00.369Z,10.37
2016-10-04T01:34:00.386Z,10.4
2016-10-04T01:35:00.423Z,10.38
2016-10-04T01:36:00.426Z,10.34
2016-10-04T01:37:00.453Z,10.35
2016-10-04T01:38:00.439Z,10.42
2016-10-04T01:39:00.515Z,10.41
2016-10-04T01:40:00.464Z,10.41
2016-10-04T01:41:00.533Z,10.48
2016-10-04T01:42:00.504Z,10.4
2016-10-04T01:43:00.527Z,10.42
2016-10-04T01:44:00.543Z,10.37
2016-10-04T01:45:00.564Z,10.41
2016-10-04T01:46:00.575Z,10.37
2016-10-04T01:47:00.600Z,10.38
2016-10-04T01:48:00.607Z,10.44
2016-10-04T01:49:00.624Z,10.34
2016-10-04T01:50:00.638Z,10.38
2016-10-04T01:51:00.666Z,10.33
2016-10-04T01:52:00.680Z,10.28
2016-10-04T01:53:00.692Z,10.23
2016-10-04T01:54:00.703Z,10.33
2016-10-04T01:55:00.733Z,10.35
2016-10-04T01:56:00.740Z,10.31
2016-10-04T01:57:00.771Z,10.26
2016-10-04T01:58:00.772Z,10.3
2016-10-04T01:59:00.801Z,10.28
2016-10-04T02:00:00.818Z,10.28
2016-10-04T02:01:00.821Z,10.4
2016-10-04T02:02:00.848Z,10.26
2016-10-04T02:03:00.869Z,10.38
2016-10-04T02:04:00.874Z,10.35
2016-10-04T02:05:00.887Z,10.25
2016-10-04T02:06:00.916Z,10.37
2016-10-04T02:07:00.929Z,10.3
2016-10-04T02:08:00.942Z,10.34
2016-10-04T02:09:01.289Z,10.23
2016-10-04T02:10:00.966Z,10.35
2016-10-04T02:11:00.995Z,10.35
2016-10-04T02:12:01.014Z,10.3
2016-10-04T02:13:01.019Z,10.31
2016-10-04T02:14:01.030Z,10.34
2016-10-04T02:15:01.059Z,10.31
2016-10-04T02:16:01.080Z,10.34
2016-10-04T02:17:01.094Z,10.25
2016-10-04T02:18:01.111Z,10.31
2016-10-04T02:19:01.121Z,10.34
2016-10-04T02:20:01.155Z,10.34
2016-10-04T02:21:01.144Z,10.34
2016-10-04T02:22:01.175Z,10.31
2016-10-04T02:23:01.193Z,10.38
2016-10-04T02:24:01.203Z,10.34
2016-10-04T02:25:01.231Z,10.34
2016-10-04T02:26:01.244Z,10.34
2016-10-04T02:27:01.268Z,10.44
2016-10-04T02:28:01.269Z,10.4
2016-10-04T02:29:01.293Z,10.41
2016-10-04T02:30:01.304Z,10.41
2016-10-04T02:31:01.311Z,10.42
2016-10-04T02:32:01.339Z,10.44
2016-10-04T02:33:01.366Z,10.48
2016-10-04T02:34:01.371Z,10.51
2016-10-04T02:35:01.391Z,10.48
2016-10-04T02:36:01.413Z,10.49
2016-10-04T02:37:01.428Z,10.49
2016-10-04T02:38:01.430Z,10.4
2016-10-04T02:39:01.450Z,10.44
2016-10-04T02:40:01.470Z,10.51
2016-10-04T02:41:01.486Z,10.49
2016-10-04T02:42:01.516Z,10.49
2016-10-04T02:43:01.829Z,10.48
2016-10-04T02:44:01.539Z,10.51
2016-10-04T02:45:01.551Z,10.54
2016-10-04T02:46:01.576Z,10.49
2016-10-04T02:47:01.593Z,10.49
2016-10-04T02:48:01.601Z,10.48
2016-10-04T02:49:01.628Z,10.56
2016-10-04T02:50:01.647Z,10.49
2016-10-04T02:51:01.656Z,10.56
2016-10-04T02:52:01.683Z,10.53
2016-10-04T02:53:01.711Z,10.59
2016-10-04T02:54:01.706Z,10.64
2016-10-04T02:55:01.726Z,10.61
2016-10-04T02:56:01.749Z,10.57
2016-10-04T02:57:01.768Z,10.72
2016-10-04T02:58:01.765Z,10.64
2016-10-04T02:59:01.791Z,10.64
2016-10-04T03:00:01.819Z,10.64
2016-10-04T03:01:01.814Z,10.68
2016-10-04T03:02:01.840Z,10.71
2016-10-04T03:03:01.872Z,10.72
2016-10-04T03:04:01.878Z,10.74
2016-10-04T03:05:01.898Z,10.64
2016-10-04T03:06:01.901Z,10.67
2016-10-04T03:07:01.938Z,10.63
2016-10-04T03:08:01.941Z,10.64
2016-10-04T03:09:01.967Z,10.71
2016-10-04T03:10:01.954Z,10.72
2016-10-04T03:11:02.000Z,10.71
2016-10-04T03:12:01.991Z,10.68
2016-10-04T03:13:02.031Z,10.72
2016-10-04T03:14:02.051Z,10.68
2016-10-04T03:15:02.070Z,10.78
2016-10-04T03:16:02.076Z,10.69
2016-10-04T03:17:02.095Z,10.72
2016-10-04T03:18:02.103Z,10.64
2016-10-04T03:19:02.134Z,10.68
2016-10-04T03:20:02.148Z,10.71
2016-10-04T03:21:02.161Z,10.67
2016-10-04T03:22:02.181Z,10.6
2016-10-04T03:23:02.204Z,10.74
2016-10-04T03:24:02.218Z,10.64
2016-10-04T03:25:02.237Z,10.69
2016-10-04T03:26:02.247Z,10.71
2016-10-04T03:27:02.270Z,10.56
2016-10-04T03:28:02.287Z,10.64
2016-10-04T03:29:02.297Z,10.67
2016-10-04T03:30:02.319Z,10.61
2016-10-04T03:31:02.323Z,10.64
2016-10-04T03:32:02.357Z,10.63
2016-10-04T03:33:02.371Z,10.6
2016-10-04T03:34:02.382Z,10.59
2016-10-04T03:35:02.396Z,10.64
2016-10-04T03:36:02.426Z,10.61
2016-10-04T03:37:02.441Z,10.51
2016-10-04T03:38:02.454Z,10.46
2016-10-04T03:39:02.558Z,10.54
2016-10-04T03:40:02.474Z,10.46
2016-10-04T03:41:02.500Z,10.53
2016-10-04T03:42:02.520Z,10.51
2016-10-04T03:43:02.542Z,10.59
2016-10-04T03:44:02.540Z,10.54
2016-10-04T03:45:02.555Z,10.54
2016-10-04T03:46:02.586Z,10.54
2016-10-04T03:47:02.604Z,10.51
2016-10-04T03:48:02.624Z,10.6
2016-10-04T03:49:02.639Z,10.61
2016-10-04T03:50:02.639Z,10.64
2016-10-04T03:51:02.666Z,10.6
2016-10-04T03:52:02.695Z,10.68
2016-10-04T03:53:02.705Z,10.67
2016-10-04T03:54:02.713Z,10.61
2016-10-04T03:55:02.731Z,10.63
2016-10-04T03:56:02.750Z,10.64
2016-10-04T03:57:03.101Z,10.59
2016-10-04T03:58:02.778Z,10.67
2016-10-04T03:59:02.803Z,10.67
2016-10-04T04:01:17.724Z,10.61
2016-10-04T04:02:02.855Z,10.61
2016-10-04T04:03:02.883Z,10.61
2016-10-04T04:04:02.903Z,10.6
2016-10-04T04:05:02.917Z,10.67
2016-10-04T04:06:02.940Z,10.59
2016-10-04T04:07:02.956Z,10.67
2016-10-04T04:08:02.966Z,10.61
2016-10-04T04:09:02.988Z,10.72
2016-10-04T04:10:03.005Z,10.59
2016-10-04T04:11:03.029Z,10.64
2016-10-04T04:12:03.035Z,10.68
2016-10-04T04:13:03.060Z,10.71
2016-10-04T04:14:03.078Z,10.64
2016-10-04T04:15:03.085Z,10.69
2016-10-04T04:16:03.104Z,10.67
2016-10-04T04:17:03.134Z,10.67
2016-10-04T04:18:03.141Z,10.78
2016-10-04T04:19:03.152Z,10.75
2016-10-04T04:20:03.181Z,10.78
2016-10-04T04:21:03.199Z,10.78
2016-10-04T04:22:03.215Z,10.79
2016-10-04T04:23:03.222Z,10.76
2016-10-04T04:24:03.232Z,10.82
2016-10-04T04:25:03.267Z,10.79
2016-10-04T04:26:03.279Z,10.82
2016-10-04T04:27:03.292Z,10.72
2016-10-04T04:28:03.307Z,10.75
2016-10-04T04:29:03.327Z,10.71
2016-10-04T04:30:03.354Z,10.69
2016-10-04T04:31:03.367Z,10.76
2016-10-04T04:32:03.374Z,10.78
2016-10-04T04:33:03.407Z,10.78
2016-10-04T04:34:03.413Z,10.72
2016-10-04T04:35:03.417Z,10.87
2016-10-04T04:36:03.433Z,10.84
2016-10-04T04:37:03.473Z,10.9
2016-10-04T04:38:03.492Z,10.82
2016-10-04T04:39:03.498Z,10.87
2016-10-04T04:40:03.502Z,10.87
2016-10-04T04:41:03.530Z,10.81
2016-10-04T04:42:03.533Z,10.82
2016-10-04T04:43:03.569Z,10.82
2016-10-04T04:44:03.581Z,10.86
2016-10-04T04:45:03.609Z,10.82
2016-10-04T04:46:03.609Z,10.78
2016-10-04T04:47:03.650Z,10.81
2016-10-04T04:48:03.637Z,10.86
2016-10-04T04:49:03.684Z,10.89
2016-10-04T04:50:03.682Z,10.89
2016-10-04T04:51:03.712Z,10.92
2016-10-04T04:52:03.707Z,10.99
2016-10-04T04:53:04.064Z,10.93
2016-10-04T04:54:03.759Z,11.02
2016-10-04T04:55:03.767Z,10.94
2016-10-04T04:56:03.781Z,10.93
2016-10-04T04:57:03.811Z,10.93
2016-10-04T04:58:03.818Z,11.02
2016-10-04T04:59:03.843Z,10.96
2016-10-04T05:00:03.859Z,11
2016-10-04T05:01:03.882Z,11.04
2016-10-04T05:02:03.888Z,10.94
2016-10-04T05:03:03.906Z,10.97
2016-10-04T05:04:03.926Z,11.05
2016-10-04T05:05:03.943Z,10.94
2016-10-04T05:06:03.951Z,10.97
2016-10-04T05:07:03.972Z,11.08
2016-10-04T05:08:03.983Z,11.05
2016-10-04T05:09:04.011Z,11.08
2016-10-04T05:10:04.008Z,11.1
2016-10-04T05:11:04.032Z,11.15
2016-10-04T05:12:04.044Z,11.1
2016-10-04T05:13:04.068Z,11.11
2016-10-04T05:14:04.099Z,11.15
2016-10-04T05:15:04.115Z,11.18
2016-10-04T05:16:04.125Z,11.22
2016-10-04T05:17:04.151Z,11.17
2016-10-04T05:18:04.163Z,11.27
2016-10-04T05:19:04.167Z,11.18
2016-10-04T05:20:04.193Z,11.25
2016-10-04T05:21:04.197Z,11.29
2016-10-04T05:22:04.219Z,11.17
2016-10-04T05:23:04.231Z,11.26
2016-10-04T05:24:04.260Z,11.22
2016-10-04T05:25:04.263Z,11.17
2016-10-04T05:26:04.295Z,11.25
2016-10-04T05:27:04.304Z,11.19
2016-10-04T05:28:04.327Z,11.18
2016-10-04T05:29:04.352Z,11.26
2016-10-04T05:30:04.357Z,11.25
2016-10-04T05:31:04.381Z,11.23
2016-10-04T05:32:04.406Z,11.36
2016-10-04T05:33:04.412Z,11.3
2016-10-04T05:34:04.427Z,11.33
2016-10-04T05:35:04.442Z,11.3
2016-10-04T05:36:04.471Z,11.36
2016-10-04T05:37:04.479Z,11.41
2016-10-04T05:38:04.493Z,11.41
2016-10-04T05:39:04.521Z,11.44
2016-10-04T05:40:04.552Z,11.52
2016-10-04T05:41:04.544Z,11.54
2016-10-04T05:42:04.561Z,11.68
2016-10-04T05:43:04.588Z,11.78
2016-10-04T05:44:04.589Z,11.8
2016-10-04T05:45:04.624Z,11.86
2016-10-04T05:46:04.643Z,11.88
2016-10-04T05:47:04.657Z,11.97
2016-10-04T05:49:04.692Z,12.04
2016-10-04T05:50:04.700Z,12.04
2016-10-04T05:51:04.723Z,12.12
2016-10-04T05:52:04.736Z,12.12
2016-10-04T05:53:04.765Z,12.17
2016-10-04T05:54:04.775Z,12.24
2016-10-04T05:55:04.788Z,12.28
2016-10-04T05:56:04.795Z,12.2
2016-10-04T05:57:04.835Z,12.28
2016-10-04T05:58:04.830Z,12.29
2016-10-04T05:59:05.204Z,12.27
2016-10-04T06:00:04.867Z,12.31
2016-10-04T06:01:04.885Z,12.35
2016-10-04T06:02:04.900Z,12.36
2016-10-04T06:03:04.923Z,12.4
2016-10-04T06:04:04.948Z,12.4
2016-10-04T06:05:04.964Z,12.32
2016-10-04T06:06:04.989Z,12.35
2016-10-04T06:07:04.997Z,12.32
2016-10-04T06:08:05.008Z,12.46
2016-10-04T06:09:05.036Z,12.43
2016-10-04T06:10:05.031Z,12.46
2016-10-04T06:11:05.062Z,12.42
2016-10-04T06:12:05.076Z,12.4
2016-10-04T06:13:05.100Z,12.45
2016-10-04T06:14:05.118Z,12.43
2016-10-04T06:15:05.139Z,12.39
2016-10-04T06:16:05.159Z,12.49
2016-10-04T06:17:05.172Z,12.43
2016-10-04T06:18:05.173Z,12.49
2016-10-04T06:19:05.200Z,12.55
2016-10-04T06:20:05.228Z,12.57
2016-10-04T06:21:05.223Z,12.57
2016-10-04T06:22:05.262Z,12.58
2016-10-04T06:23:05.274Z,12.58
2016-10-04T06:24:05.287Z,12.61
2016-10-04T06:25:05.319Z,12.58
2016-10-04T06:26:05.307Z,12.6
2016-10-04T06:27:05.346Z,12.57
2016-10-04T06:28:05.358Z,12.61
2016-10-04T06:29:05.383Z,12.57
2016-10-04T06:30:05.404Z,12.67
2016-10-04T06:31:05.407Z,12.6
2016-10-04T06:32:05.423Z,12.72
2016-10-04T06:33:05.447Z,12.72
2016-10-04T06:34:05.470Z,12.76
2016-10-04T06:35:05.490Z,12.7
2016-10-04T06:36:05.498Z,12.67
2016-10-04T06:37:05.523Z,12.67
2016-10-04T06:38:05.525Z,12.73
2016-10-04T06:39:05.549Z,12.68
2016-10-04T06:40:05.561Z,12.78
2016-10-04T06:41:05.579Z,12.78
2016-10-04T06:42:05.599Z,12.8
2016-10-04T06:43:05.622Z,12.82
2016-10-04T06:44:05.642Z,12.9
2016-10-04T06:45:05.671Z,12.9
2016-10-04T06:46:05.677Z,12.97
2016-10-04T06:47:05.694Z,12.98
2016-10-04T06:48:05.704Z,13.04
2016-10-04T06:49:05.738Z,13.05
2016-10-04T06:50:05.735Z,13.13
2016-10-04T06:51:05.758Z,13.18
2016-10-04T06:52:05.789Z,13.2
2016-10-04T06:53:05.799Z,13.2
2016-10-04T06:54:05.806Z,13.33
2016-10-04T06:55:05.842Z,13.39
2016-10-04T06:56:05.854Z,13.46
2016-10-04T06:57:05.876Z,13.42
2016-10-04T06:58:05.886Z,13.53
2016-10-04T06:59:05.931Z,13.63
2016-10-04T07:00:05.920Z,13.72
2016-10-04T07:01:05.945Z,13.78
2016-10-04T07:02:05.958Z,13.72
2016-10-04T07:03:05.981Z,13.7
2016-10-04T07:04:06.004Z,13.68
2016-10-04T07:05:06.026Z,13.71
2016-10-04T07:06:06.064Z,13.63
2016-10-04T07:07:06.065Z,13.75
2016-10-04T07:08:06.085Z,13.6
2016-10-04T07:09:06.146Z,13.7
2016-10-04T07:10:06.114Z,13.67
2016-10-04T07:11:06.142Z,13.65
2016-10-04T07:12:06.150Z,13.59
2016-10-04T07:13:06.207Z,13.67
2016-10-04T07:14:06.220Z,13.72
2016-10-04T07:15:06.201Z,13.63
2016-10-04T07:16:06.217Z,13.77
2016-10-04T07:17:06.252Z,13.68
2016-10-04T07:18:06.256Z,13.71
2016-10-04T07:19:06.290Z,13.72
2016-10-04T07:20:06.284Z,13.71
2016-10-04T07:21:06.307Z,13.77
2016-10-04T07:22:06.313Z,13.74
2016-10-04T07:23:06.355Z,13.68
2016-10-04T07:24:06.366Z,13.68
2016-10-04T07:25:06.394Z,13.72
2016-10-04T07:26:06.406Z,13.81
2016-10-04T07:27:06.427Z,13.87
2016-10-04T07:28:06.436Z,13.81
2016-10-04T07:29:06.468Z,13.87
2016-10-04T07:30:06.474Z,13.85
2016-10-04T07:31:06.503Z,13.85
2016-10-04T07:32:06.512Z,13.93
2016-10-04T07:33:06.534Z,13.93
2016-10-04T07:34:06.550Z,13.95
2016-10-04T07:35:06.578Z,13.99
2016-10-04T07:36:06.582Z,14
2016-10-04T07:37:06.616Z,14
2016-10-04T07:38:06.616Z,14.05
2016-10-04T07:39:06.652Z,14
2016-10-04T07:40:06.666Z,14.26
2016-10-04T07:41:06.701Z,14.41
2016-10-04T07:42:06.708Z,14.48
2016-10-04T07:43:06.712Z,14.59
2016-10-04T07:44:06.736Z,14.79
2016-10-04T07:45:06.756Z,14.85
2016-10-04T07:46:06.790Z,14.88
2016-10-04T07:47:06.801Z,14.99
2016-10-04T07:48:06.808Z,15.04
2016-10-04T07:49:06.833Z,15.04
2016-10-04T07:50:06.858Z,15
2016-10-04T07:51:06.860Z,14.97
2016-10-04T07:52:06.892Z,14.96
2016-10-04T07:53:06.908Z,15.02
2016-10-04T07:54:06.931Z,15.1
2016-10-04T07:55:06.949Z,15.07
2016-10-04T07:56:06.964Z,15
2016-10-04T07:57:06.972Z,14.94
2016-10-04T07:58:06.998Z,14.84
2016-10-04T07:59:07.035Z,14.86
2016-10-04T08:00:07.051Z,14.86
2016-10-04T08:01:07.062Z,14.79
2016-10-04T08:02:07.077Z,14.7
2016-10-04T08:03:07.103Z,14.63
2016-10-04T08:04:07.129Z,14.6
2016-10-04T08:05:07.146Z,14.55
2016-10-04T08:06:07.161Z,14.53
2016-10-04T08:07:07.174Z,14.58
2016-10-04T08:08:07.201Z,14.53
2016-10-04T08:09:07.229Z,14.63
2016-10-04T08:10:07.231Z,14.65
2016-10-04T08:11:07.271Z,14.62
2016-10-04T08:12:07.272Z,14.58
2016-10-04T08:13:07.289Z,14.63
2016-10-04T08:14:07.303Z,14.72
2016-10-04T08:15:07.332Z,14.7
2016-10-04T08:16:07.338Z,14.68
2016-10-04T08:17:07.372Z,14.65
2016-10-04T08:18:07.395Z,14.59
2016-10-04T08:19:07.405Z,14.55
2016-10-04T08:20:07.417Z,14.63
2016-10-04T08:21:07.458Z,14.53
2016-10-04T08:22:07.465Z,14.6
2016-10-04T08:23:07.480Z,14.58
2016-10-04T08:24:07.512Z,14.55
2016-10-04T08:25:07.521Z,14.55
2016-10-04T08:26:07.534Z,14.47
2016-10-04T08:27:07.563Z,14.45
2016-10-04T08:28:07.576Z,14.54
2016-10-04T08:29:07.603Z,14.53
2016-10-04T08:30:07.625Z,14.5
2016-10-04T08:31:07.644Z,14.48
2016-10-04T08:32:07.652Z,14.53
2016-10-04T08:33:07.673Z,14.47
2016-10-04T08:34:07.688Z,14.45
2016-10-04T08:35:07.719Z,14.54
2016-10-04T08:36:07.730Z,14.41
2016-10-04T08:37:07.753Z,14.45
2016-10-04T08:38:07.765Z,14.53
2016-10-04T08:39:07.788Z,14.47
2016-10-04T08:40:07.796Z,14.4
2016-10-04T08:41:07.834Z,14.62
2016-10-04T08:42:07.831Z,14.62
2016-10-04T08:43:07.861Z,14.63
2016-10-04T08:44:07.869Z,14.66
2016-10-04T08:45:07.882Z,14.58
2016-10-04T08:46:07.923Z,14.6
2016-10-04T08:47:07.933Z,14.55
2016-10-04T08:48:07.960Z,14.65
2016-10-04T08:49:07.988Z,14.65
2016-10-04T08:50:07.996Z,14.62
2016-10-04T08:51:08.022Z,14.77
2016-10-04T08:52:08.032Z,14.82
2016-10-04T08:53:08.059Z,14.85
2016-10-04T08:54:08.077Z,14.91
2016-10-04T08:55:08.093Z,14.81
2016-10-04T08:56:08.102Z,14.82
2016-10-04T08:57:08.149Z,14.81
2016-10-04T08:58:08.141Z,14.84
2016-10-04T08:59:08.162Z,14.82
2016-10-04T09:00:08.180Z,14.88
2016-10-04T09:01:08.207Z,14.84
2016-10-04T09:02:08.221Z,14.81
2016-10-04T09:03:08.241Z,14.85
2016-10-04T09:04:08.266Z,14.78
2016-10-04T09:05:08.273Z,14.84
2016-10-04T09:06:08.289Z,14.85
2016-10-04T09:07:08.329Z,14.84
2016-10-04T09:08:08.333Z,14.82
2016-10-04T09:09:08.351Z,14.85
2016-10-04T09:10:08.375Z,14.78
2016-10-04T09:11:08.398Z,14.73
2016-10-04T09:12:08.413Z,14.94
2016-10-04T09:13:08.436Z,14.89
2016-10-04T09:14:08.469Z,14.94
2016-10-04T09:15:08.468Z,14.96
2016-10-04T09:16:08.486Z,15.07
2016-10-04T09:17:08.513Z,15.04
2016-10-04T09:18:08.528Z,15.07
2016-10-04T09:19:08.539Z,15.14
2016-10-04T09:20:08.566Z,15.1
2016-10-04T09:21:08.579Z,15.09
2016-10-04T09:22:08.603Z,15.15
2016-10-04T09:23:08.628Z,15.18
2016-10-04T09:24:08.636Z,15.27
2016-10-04T09:25:08.673Z,15.35
2016-10-04T09:26:08.671Z,15.33
2016-10-04T09:27:08.699Z,15.55
2016-10-04T09:28:08.719Z,15.68
2016-10-04T09:29:08.736Z,15.84
2016-10-04T09:30:08.747Z,16.01
2016-10-04T09:31:09.105Z,16.15
2016-10-04T09:32:08.787Z,16.17
2016-10-04T09:33:08.824Z,16.2
2016-10-04T09:34:08.832Z,16.39
2016-10-04T09:35:08.851Z,16.36
2016-10-04T09:36:08.880Z,16.5
2016-10-04T09:37:08.896Z,16.5
2016-10-04T09:38:08.921Z,16.58
2016-10-04T09:39:08.951Z,16.69
2016-10-04T09:40:08.940Z,16.72
2016-10-04T09:41:08.983Z,16.74
2016-10-04T09:42:08.983Z,16.72
2016-10-04T09:43:09.344Z,16.83
2016-10-04T09:44:09.025Z,16.91
2016-10-04T09:45:09.056Z,17.06
2016-10-04T09:46:09.067Z,17.04
2016-10-04T09:47:09.093Z,17.08
2016-10-04T09:48:09.105Z,17.04
2016-10-04T09:49:09.151Z,17.05
2016-10-04T09:50:09.167Z,17.05
2016-10-04T09:51:09.176Z,17.19
2016-10-04T09:52:09.184Z,17.09
2016-10-04T09:53:09.225Z,17.14
2016-10-04T09:54:09.225Z,17.34
2016-10-04T09:55:09.253Z,17.39
2016-10-04T09:56:09.273Z,17.45
2016-10-04T09:57:09.308Z,17.45
2016-10-04T09:58:09.338Z,17.64
2016-10-04T09:59:09.355Z,17.49
2016-10-04T10:00:09.373Z,17.48
2016-10-04T10:01:09.372Z,17.29
2016-10-04T10:02:09.404Z,17.06
2016-10-04T10:03:09.427Z,17.05
2016-10-04T10:04:09.459Z,16.99
2016-10-04T10:05:09.469Z,16.89
2016-10-04T10:06:09.486Z,16.57
2016-10-04T10:07:09.511Z,16.38
2016-10-04T10:08:09.530Z,16.28
2016-10-04T10:09:09.553Z,16.21
2016-10-04T10:10:09.566Z,16.42
2016-10-04T10:11:09.582Z,16.42
2016-10-04T10:12:09.607Z,16.43
2016-10-04T10:13:09.624Z,16.54
2016-10-04T10:14:09.648Z,16.53
2016-10-04T10:15:09.671Z,16.58
2016-10-04T10:16:09.690Z,16.64
2016-10-04T10:17:09.709Z,16.61
2016-10-04T10:18:09.736Z,16.66
2016-10-04T10:19:09.743Z,16.64
2016-10-04T10:20:09.773Z,16.6
2016-10-04T10:21:09.797Z,16.74
2016-10-04T10:22:09.811Z,16.81
2016-10-04T10:23:09.822Z,16.84
2016-10-04T10:24:09.842Z,16.89
2016-10-04T10:25:09.860Z,16.81
2016-10-04T10:26:09.879Z,16.75
2016-10-04T10:27:09.915Z,16.72
2016-10-04T10:28:09.925Z,16.83
2016-10-04T10:29:09.951Z,16.93
2016-10-04T10:30:09.977Z,17.04
2016-10-04T10:31:09.988Z,17.2
2016-10-04T10:32:10.012Z,17.14
2016-10-04T10:33:10.025Z,17.22
2016-10-04T10:34:10.052Z,17.34
2016-10-04T10:35:10.086Z,17.27
2016-10-04T10:36:10.097Z,17.29
2016-10-04T10:37:10.109Z,17.19
2016-10-04T10:38:10.130Z,16.96
2016-10-04T10:39:10.155Z,16.78
2016-10-04T10:40:10.171Z,16.69
2016-10-04T10:41:10.195Z,16.89
2016-10-04T10:42:10.215Z,16.96
2016-10-04T10:43:10.219Z,17.06
2016-10-04T10:44:10.248Z,17.02
2016-10-04T10:45:10.284Z,16.9
2016-10-04T10:46:10.287Z,16.78
2016-10-04T10:47:10.325Z,16.81
2016-10-04T10:48:10.329Z,16.75
2016-10-04T10:49:10.360Z,16.79
2016-10-04T10:50:10.377Z,16.74
2016-10-04T10:51:10.401Z,16.81
2016-10-04T10:52:10.409Z,16.87
2016-10-04T10:53:10.430Z,16.9
2016-10-04T10:54:10.458Z,17.01
2016-10-04T10:55:10.795Z,16.96
2016-10-04T10:56:10.494Z,17.02
2016-10-04T10:57:10.510Z,16.9
2016-10-04T10:58:10.541Z,16.9
2016-10-04T10:59:10.565Z,16.94
2016-10-04T11:00:10.578Z,16.79
2016-10-04T11:01:10.601Z,16.81
2016-10-04T11:02:10.613Z,16.74
2016-10-04T11:03:10.634Z,16.74
2016-10-04T11:04:10.651Z,16.81
2016-10-04T11:05:10.681Z,16.74
2016-10-04T11:06:10.696Z,16.71
2016-10-04T11:07:10.727Z,16.68
2016-10-04T11:08:10.728Z,16.66
2016-10-04T11:09:10.772Z,16.58
2016-10-04T11:10:10.771Z,16.61
2016-10-04T11:11:10.803Z,16.6
2016-10-04T11:12:10.832Z,16.36
2016-10-04T11:13:10.842Z,16.33
2016-10-04T11:14:10.864Z,16.31
2016-10-04T11:15:10.872Z,16.16
2016-10-04T11:16:10.901Z,16.16
2016-10-04T11:17:10.936Z,16.16
2016-10-04T11:18:10.931Z,16.16
2016-10-04T11:19:10.965Z,16.33
2016-10-04T11:20:10.969Z,16.35
2016-10-04T11:21:10.997Z,16.49
2016-10-04T11:22:11.016Z,16.51
2016-10-04T11:23:11.043Z,16.74
2016-10-04T11:24:11.058Z,16.91
2016-10-04T11:25:11.081Z,17.14
2016-10-04T11:26:11.090Z,17.27
2016-10-04T11:27:11.121Z,17.38
2016-10-04T11:28:11.125Z,17.51
2016-10-04T11:29:11.143Z,17.74
2016-10-04T11:30:11.177Z,17.86
2016-10-04T11:31:11.201Z,17.89
2016-10-04T11:32:11.222Z,17.95
2016-10-04T11:33:11.241Z,17.9
2016-10-04T11:34:11.262Z,17.92
2016-10-04T11:35:11.293Z,18.05
2016-10-04T11:36:11.295Z,18.25
2016-10-04T11:37:11.330Z,18.33
2016-10-04T11:38:11.327Z,18.4
2016-10-04T11:39:11.362Z,18.45
2016-10-04T11:40:11.388Z,18.49
2016-10-04T11:41:11.403Z,18.49
2016-10-04T11:42:11.433Z,18.55
2016-10-04T11:43:11.455Z,18.59
2016-10-04T11:44:11.460Z,18.65
2016-10-04T11:45:11.490Z,18.56
2016-10-04T11:46:11.513Z,18.62
2016-10-04T11:47:11.534Z,18.52
2016-10-04T11:48:11.542Z,18.53
2016-10-04T11:49:11.574Z,18.56
2016-10-04T11:50:11.597Z,18.49
2016-10-04T11:51:11.605Z,18.5
2016-10-04T11:52:11.630Z,18.58
2016-10-04T11:53:11.669Z,18.7
2016-10-04T11:54:11.671Z,18.73
2016-10-04T11:55:11.703Z,18.8
2016-10-04T11:56:11.721Z,18.84
2016-10-04T11:57:11.743Z,18.83
2016-10-04T11:58:11.743Z,18.75
2016-10-04T11:59:11.779Z,18.71
2016-10-04T12:00:11.794Z,18.7
2016-10-04T12:01:11.830Z,18.6
2016-10-04T12:02:11.837Z,18.65
2016-10-04T12:03:11.875Z,18.68
2016-10-04T12:04:12.229Z,18.68
2016-10-04T12:05:11.905Z,18.74
2016-10-04T12:06:11.916Z,18.78
2016-10-04T12:07:11.977Z,18.65
2016-10-04T12:08:11.967Z,18.62
2016-10-04T12:09:11.992Z,18.49
2016-10-04T12:10:12.007Z,18.4
2016-10-04T12:11:12.025Z,18.31
2016-10-04T12:12:12.061Z,18.18
2016-10-04T12:13:12.076Z,18.03
2016-10-04T12:14:12.136Z,17.82
2016-10-04T12:15:12.137Z,17.65
2016-10-04T12:16:12.136Z,17.63
2016-10-04T12:17:12.173Z,17.7
2016-10-04T12:18:12.191Z,17.71
2016-10-04T12:19:12.215Z,17.67
2016-10-04T12:20:12.226Z,17.71
2016-10-04T12:21:12.240Z,17.76
2016-10-04T12:22:12.260Z,17.9
2016-10-04T12:23:12.291Z,17.94
2016-10-04T12:24:12.293Z,18.15
2016-10-04T12:25:12.333Z,18.35
2016-10-04T12:26:12.342Z,18.37
2016-10-04T12:27:12.386Z,18.31
2016-10-04T12:28:12.398Z,18.08
2016-10-04T12:29:12.417Z,17.89
2016-10-04T12:30:12.421Z,17.57
2016-10-04T12:31:12.464Z,17.39
2016-10-04T12:32:12.474Z,17.24
2016-10-04T12:33:12.484Z,17.15
2016-10-04T12:34:12.524Z,17.16
2016-10-04T12:35:12.534Z,17.24
2016-10-04T12:36:12.550Z,17.31
2016-10-04T12:37:12.912Z,17.42
2016-10-04T12:38:12.597Z,17.45
2016-10-04T12:39:12.621Z,17.51
2016-10-04T12:40:12.629Z,17.67
2016-10-04T12:41:12.666Z,17.64
2016-10-04T12:42:12.677Z,17.68
2016-10-04T12:43:12.692Z,17.57
2016-10-04T12:44:12.723Z,17.48
2016-10-04T12:45:12.728Z,17.48
2016-10-04T12:46:12.760Z,17.41
2016-10-04T12:47:12.785Z,17.6
2016-10-04T12:48:12.808Z,17.64
2016-10-04T12:49:12.818Z,17.86
2016-10-04T12:50:12.850Z,17.97
2016-10-04T12:51:12.880Z,17.95
2016-10-04T12:52:12.872Z,18.04
2016-10-04T12:53:12.901Z,18.2
2016-10-04T12:54:12.938Z,18.19
2016-10-04T12:55:12.967Z,18.31
2016-10-04T12:56:12.968Z,18.26
2016-10-04T12:57:12.995Z,18.38
2016-10-04T12:58:13.011Z,18.41
2016-10-04T12:59:13.033Z,18.63
2016-10-04T13:00:13.040Z,18.73